Time;durP1;ratioP1;P1;durP2;ratioP2;P2;SDS_P1;SDS_P2;PMS_P1;PMS_P2;Temp;Humidity;BMP_temperature;BMP_pressure;BME280_temperature;BME280_humidity;BME280_pressure;Samples;Min_cycle;Max_cycle;Signal;HPM_P1;HPM_P2
2021/07/14 00:02:13;;;;;;;9.30;6.97;;;;;;;22.73;62.49;101029.88;5014808;28;20084;-73
2021/07/14 00:04:41;;;;;;;8.63;7.10;;;;;;;22.72;62.60;101031.72;5014366;28;20298;-73
2021/07/14 00:07:07;;;;;;;8.23;6.38;;;;;;;22.72;62.86;101026.41;5013984;28;20033;-72
2021/07/14 00:09:32;;;;;;;8.43;7.05;;;;;;;22.73;62.87;101038.72;5013980;28;20026;-72
2021/07/14 00:12:04;;;;;;;8.48;6.95;;;;;;;22.72;62.63;101042.34;5014736;28;20355;-72
2021/07/14 00:22:29;;;;;;;9.15;6.35;;;;;;;22.70;62.80;101016.91;5014413;28;20372;-73
2021/07/14 00:24:55;;;;;;;8.68;6.63;;;;;;;22.70;62.63;101009.78;5014282;28;20067;-73
2021/07/14 00:27:20;;;;;;;8.23;6.50;;;;;;;22.70;62.71;101023.06;5013548;28;20108;-73
2021/07/14 00:29:55;;;;;;;8.55;6.88;;;;;;;22.69;62.75;101015.25;5014158;28;20022;-72
2021/07/14 00:32:20;;;;;;;8.27;6.80;;;;;;;22.70;62.69;101008.94;5014318;28;20053;-72
2021/07/14 00:34:46;;;;;;;9.57;6.93;;;;;;;22.70;62.62;101011.59;5014036;28;20022;-72
2021/07/14 00:37:12;;;;;;;8.70;7.35;;;;;;;22.69;62.70;101015.25;5014142;28;20024;-72
2021/07/14 00:39:38;;;;;;;7.88;6.43;;;;;;;22.68;62.94;101018.88;5014351;28;20036;-73
2021/07/14 00:42:05;;;;;;;10.18;6.50;;;;;;;22.69;62.87;101017.91;5013932;28;20456;-72
2021/07/14 00:44:30;;;;;;;8.93;6.47;;;;;;;22.68;62.64;101017.06;5013926;28;20046;-73
2021/07/14 00:46:55;;;;;;;8.80;7.15;;;;;;;22.68;62.73;101011.75;5014439;28;20346;-72
2021/07/14 00:49:21;;;;;;;8.75;6.60;;;;;;;22.68;62.61;101006.44;5013253;28;20018;-72
2021/07/14 00:51:53;;;;;;;8.15;6.75;;;;;;;22.67;62.51;100995.94;5014213;28;20056;-72
2021/07/14 00:54:18;;;;;;;9.50;7.47;;;;;;;22.66;62.40;101011.06;5013888;28;20033;-74
2021/07/14 00:56:47;;;;;;;10.30;6.93;;;;;;;22.66;62.46;101008.41;5013231;28;20030;-72
2021/07/14 00:59:12;;;;;;;8.65;6.75;;;;;;;22.67;62.55;101011.88;5014038;28;20037;-72
2021/07/14 01:01:37;;;;;;;9.00;6.45;;;;;;;22.66;62.83;101015.56;5013649;28;20018;-73
2021/07/14 01:04:05;;;;;;;8.45;6.47;;;;;;;22.66;62.56;101020.88;5013045;28;20478;-73
2021/07/14 01:06:49;;;;;;;10.13;7.13;;;;;;;22.66;62.59;101024.34;5013526;28;20030;-73
2021/07/14 01:09:17;;;;;;;8.60;6.93;;;;;;;22.65;62.36;101017.34;5013425;28;20022;-74
2021/07/14 01:11:45;;;;;;;8.60;6.90;;;;;;;22.65;62.48;101022.66;5013812;28;20263;-73
2021/07/14 01:14:25;;;;;;;7.97;6.53;;;;;;;22.66;62.67;101028.84;5013995;28;20121;-73
2021/07/14 01:17:00;;;;;;;8.68;6.32;;;;;;;22.64;62.75;101027.16;5013673;28;20040;-72
2021/07/14 01:19:44;;;;;;;8.20;6.55;;;;;;;22.65;62.35;101033.28;5014705;28;20037;-73
2021/07/14 01:22:43;;;;;;;9.85;7.13;;;;;;;22.64;62.54;101036.94;5013816;28;20050;-72
2021/07/14 01:25:24;;;;;;;8.10;6.20;;;;;;;22.61;62.32;101035.41;5013704;28;20037;-73
2021/07/14 01:27:51;;;;;;;9.10;6.55;;;;;;;22.63;62.61;101041.41;5013735;28;20037;-73
2021/07/14 01:30:17;;;;;;;9.27;7.10;;;;;;;22.62;62.58;101038.91;5012660;28;20038;-72
2021/07/14 01:32:44;;;;;;;8.45;6.75;;;;;;;22.60;62.52;101036.38;5013872;28;20109;-72
2021/07/14 01:35:20;;;;;;;8.25;6.32;;;;;;;22.61;62.21;101038.06;5013933;28;20030;-72
2021/07/14 01:37:49;;;;;;;8.52;6.18;;;;;;;22.56;62.56;101035.03;5013058;28;20544;-72
2021/07/14 01:40:17;;;;;;;9.48;6.63;;;;;;;22.59;62.37;101034.75;5013367;28;20034;-73
2021/07/14 01:42:45;;;;;;;8.25;6.55;;;;;;;22.60;62.31;101027.59;5013631;28;20041;-73
2021/07/14 01:45:12;;;;;;;8.25;6.38;;;;;;;22.61;62.70;101037.25;5012490;28;20061;-73
2021/07/14 01:47:40;;;;;;;8.48;6.40;;;;;;;22.61;62.41;101026.63;5013244;28;20064;-73
2021/07/14 01:50:07;;;;;;;9.32;6.60;;;;;;;22.60;62.62;101025.75;5013355;28;20026;-73
2021/07/14 01:52:34;;;;;;;8.95;6.32;;;;;;;22.60;62.40;101028.41;5012475;28;20034;-73
2021/07/14 01:55:05;;;;;;;9.10;6.28;;;;;;;22.57;62.59;101017.28;5013377;28;20030;-73
2021/07/14 01:57:33;;;;;;;8.07;6.03;;;;;;;22.60;62.39;101016.97;5013376;28;20033;-72
2021/07/14 02:00:00;;;;;;;7.82;6.03;;;;;;;22.59;62.58;101026.78;5012948;28;20032;-72
2021/07/14 02:02:28;;;;;;;9.93;6.32;;;;;;;22.59;62.54;101016.16;5012999;28;20347;-72
2021/07/14 02:04:58;;;;;;;8.68;6.05;;;;;;;22.60;62.23;101019.63;5013172;28;20492;-73
2021/07/14 02:07:26;;;;;;;8.77;6.57;;;;;;;22.60;62.23;101016.97;5012083;28;20084;-73
2021/07/14 02:09:54;;;;;;;10.27;6.07;;;;;;;22.58;62.40;101019.78;5013066;28;20053;-73
2021/07/14 02:12:29;;;;;;;8.65;6.13;;;;;;;22.57;62.21;101009.31;5013191;28;20366;-72
2021/07/14 02:14:59;;;;;;;9.05;6.50;;;;;;;22.59;62.71;101013.50;5013302;28;20026;-73
2021/07/14 02:17:32;;;;;;;6.88;5.70;;;;;;;22.56;62.27;100999.69;5012523;28;20367;-72
2021/07/14 02:20:04;;;;;;;8.52;6.53;;;;;;;22.58;62.25;101008.31;5012141;28;20034;-72
2021/07/14 02:22:30;;;;;;;7.50;5.97;;;;;;;22.57;62.26;101002.19;5012635;28;20462;-74
2021/07/14 02:24:55;;;;;;;7.90;6.20;;;;;;;22.57;62.26;100996.88;5012501;28;20029;-73
2021/07/14 02:27:21;;;;;;;8.10;6.28;;;;;;;22.57;62.46;100988.91;5011641;28;20430;-73
2021/07/14 02:29:50;;;;;;;8.23;5.88;;;;;;;22.55;62.23;100990.84;5012720;28;20032;-72
2021/07/14 02:32:18;;;;;;;8.70;6.15;;;;;;;22.55;62.28;100993.50;5012265;28;20026;-73
2021/07/14 02:34:50;;;;;;;8.32;6.30;;;;;;;22.55;62.26;101000.66;5015389;28;20366;-72
2021/07/14 02:37:23;;;;;;;8.57;5.93;;;;;;;22.52;62.05;100988.50;5015441;28;20096;-73
2021/07/14 02:39:52;;;;;;;8.45;6.55;;;;;;;22.57;62.06;100998.69;5016560;28;20025;-73
2021/07/14 02:42:29;;;;;;;8.52;6.05;;;;;;;22.56;62.22;100997.03;5015393;28;20033;-72
2021/07/14 02:44:56;;;;;;;8.65;6.15;;;;;;;22.55;62.19;100990.84;5016284;28;20042;-73
2021/07/14 02:47:22;;;;;;;8.93;6.10;;;;;;;22.54;62.09;100991.00;5015726;28;20022;-72
2021/07/14 02:49:48;;;;;;;7.90;6.20;;;;;;;22.55;62.41;100996.16;5014962;28;20042;-72
2021/07/14 02:52:14;;;;;;;8.40;6.15;;;;;;;22.54;62.59;100996.31;5016445;28;20049;-73
2021/07/14 02:54:43;;;;;;;7.95;6.15;;;;;;;22.54;62.34;100991.00;5015344;28;20026;-72
2021/07/14 02:57:12;;;;;;;7.55;5.72;;;;;;;22.54;62.34;100993.66;5016103;28;20097;-74
2021/07/14 02:59:40;;;;;;;7.93;6.20;;;;;;;22.55;62.14;100998.00;5015941;28;20105;-73
2021/07/14 03:02:06;;;;;;;7.22;5.60;;;;;;;22.52;62.49;100991.16;5015165;28;20026;-72
2021/07/14 03:04:36;;;;;;;7.85;5.90;;;;;;;22.53;62.33;100995.50;5015864;28;20036;-73
2021/07/14 03:07:07;;;;;;;8.40;6.22;;;;;;;22.53;62.28;100992.84;5016002;28;20121;-73
2021/07/14 03:09:37;;;;;;;8.63;6.00;;;;;;;22.51;62.56;100981.53;5014958;28;20038;-72
2021/07/14 03:12:14;;;;;;;7.97;5.75;;;;;;;22.53;62.33;100981.41;5016004;28;20576;-73
2021/07/14 03:14:55;;;;;;;8.15;5.68;;;;;;;22.52;62.24;100977.06;5016092;28;20466;-73
2021/07/14 03:17:22;;;;;;;8.98;6.38;;;;;;;22.53;62.39;100986.69;5016187;28;20432;-74
2021/07/14 03:19:49;;;;;;;8.65;6.13;;;;;;;22.52;62.70;100988.50;5015818;28;20034;-73
2021/07/14 03:22:17;;;;;;;8.00;5.50;;;;;;;22.52;62.47;100987.69;5015436;28;20018;-72
2021/07/14 03:24:43;;;;;;;8.85;6.00;;;;;;;22.52;62.35;100980.53;5014620;28;20091;-73
2021/07/14 03:27:11;;;;;;;8.82;6.25;;;;;;;22.51;62.08;100983.34;5015467;28;20112;-72
2021/07/14 03:29:38;;;;;;;8.63;6.00;;;;;;;22.52;62.17;100980.53;5015529;28;20022;-72
2021/07/14 03:32:04;;;;;;;7.70;6.05;;;;;;;22.53;62.56;100981.41;5015020;28;20168;-73
2021/07/14 03:34:33;;;;;;;7.82;6.10;;;;;;;22.51;62.07;100975.38;5015562;28;20108;-72
2021/07/14 03:37:04;;;;;;;8.13;5.82;;;;;;;22.50;62.30;100985.16;5014732;28;20454;-73
2021/07/14 03:39:31;;;;;;;8.25;5.95;;;;;;;22.50;62.44;100979.84;5015109;28;20033;-73
2021/07/14 03:41:58;;;;;;;8.80;5.72;;;;;;;22.51;62.45;100986.84;5015477;28;20018;-73
2021/07/14 03:44:27;;;;;;;7.60;5.80;;;;;;;22.50;62.30;100987.81;5013412;28;20030;-73
2021/07/14 03:46:53;;;;;;;6.43;5.50;;;;;;;22.50;62.49;100979.03;5015636;28;20033;-73
2021/07/14 03:49:19;;;;;;;8.25;5.50;;;;;;;22.50;62.40;100985.16;5014999;28;20461;-72
2021/07/14 03:51:46;;;;;;;8.98;5.65;;;;;;;22.50;62.58;100982.50;5014450;28;20033;-73
2021/07/14 03:54:13;;;;;;;8.68;5.97;;;;;;;22.48;62.14;100981.84;5015136;28;20109;-72
2021/07/14 03:56:39;;;;;;;7.88;6.07;;;;;;;22.51;62.27;100980.69;5015242;28;20021;-72
2021/07/14 03:59:05;;;;;;;7.30;5.22;;;;;;;22.50;62.57;100982.50;5015304;28;20026;-73
2021/07/14 04:01:31;;;;;;;8.35;5.97;;;;;;;22.48;62.43;100975.66;5015946;28;20091;-73
2021/07/14 04:04:00;;;;;;;7.82;5.82;;;;;;;22.49;62.73;100975.53;5015223;28;20033;-72
2021/07/14 04:06:34;;;;;;;7.95;6.00;;;;;;;22.48;62.54;100978.31;5013949;28;20037;-74
2021/07/14 04:09:18;;;;;;;;;;;;;;;22.49;62.39;100982.66;5015608;28;20107;-72
2021/07/14 04:11:56;;;;;;;7.13;5.70;;;;;;;22.47;62.60;100982.81;5015124;28;20338;-74
2021/07/14 04:14:22;;;;;;;8.30;5.97;;;;;;;22.47;62.33;100985.47;5013967;28;20099;-72
2021/07/14 04:16:47;;;;;;;7.65;5.90;;;;;;;22.46;62.14;100989.09;5014986;28;20048;-71
2021/07/14 04:19:13;;;;;;;8.43;5.53;;;;;;;22.48;62.39;100984.50;5013927;28;20334;-73
2021/07/14 04:21:39;;;;;;;6.65;4.93;;;;;;;22.48;62.22;100986.28;5013926;28;20025;-73
2021/07/14 04:24:05;;;;;;;8.40;5.75;;;;;;;22.48;62.43;100980.97;5014047;28;20125;-73
2021/07/14 04:26:31;;;;;;;8.02;5.78;;;;;;;22.45;62.57;100976.81;5013169;28;20041;-72
2021/07/14 04:28:57;;;;;;;7.22;5.60;;;;;;;22.48;62.25;100978.31;5014212;28;20033;-73
2021/07/14 04:31:25;;;;;;;7.53;5.33;;;;;;;22.46;62.44;100976.69;5013960;28;20470;-73
2021/07/14 04:33:50;;;;;;;7.28;5.50;;;;;;;22.46;62.20;100979.34;5013398;28;20326;-72
2021/07/14 04:36:15;;;;;;;8.25;5.78;;;;;;;22.45;62.46;100979.47;5013804;28;20033;-72
2021/07/14 04:38:40;;;;;;;7.43;5.30;;;;;;;22.43;62.13;100970.81;5014187;28;20076;-71
2021/07/14 04:41:06;;;;;;;7.87;5.53;;;;;;;22.46;62.48;100978.47;5013981;28;20033;-73
2021/07/14 04:43:32;;;;;;;7.22;5.40;;;;;;;22.46;62.47;100978.47;5014503;28;20266;-72
2021/07/14 04:45:58;;;;;;;7.68;5.60;;;;;;;22.46;62.29;100983.78;5013921;28;20371;-73
2021/07/14 04:48:24;;;;;;;7.45;5.53;;;;;;;22.45;62.47;100980.31;5012687;28;20087;-72
2021/07/14 04:50:49;;;;;;;8.57;6.13;;;;;;;22.41;62.54;100971.00;5014023;28;20446;-73
2021/07/14 04:53:14;;;;;;;7.53;5.57;;;;;;;22.44;62.56;100975.97;5013642;28;20466;-72
2021/07/14 04:55:40;;;;;;;7.05;5.53;;;;;;;22.42;62.11;100969.97;5012777;28;20268;-72
2021/07/14 04:58:06;;;;;;;8.75;6.00;;;;;;;22.43;62.08;100971.66;5013878;28;20462;-72
2021/07/14 05:00:31;;;;;;;8.45;5.72;;;;;;;22.45;62.41;100968.84;5013226;28;20034;-73
2021/07/14 05:02:56;;;;;;;8.23;5.95;;;;;;;22.44;62.16;100962.69;5012773;28;20030;-72
2021/07/14 05:05:22;;;;;;;7.95;5.57;;;;;;;22.44;62.33;100959.22;5013252;28;20044;-71
2021/07/14 05:07:49;;;;;;;7.65;5.60;;;;;;;22.43;62.42;100966.34;5013641;28;20091;-73
2021/07/14 05:10:15;;;;;;;7.80;5.40;;;;;;;22.45;62.34;100974.16;5012527;28;20108;-72
2021/07/14 05:12:41;;;;;;;8.65;5.35;;;;;;;22.43;62.50;100971.66;5013530;28;20213;-73
2021/07/14 05:15:07;;;;;;;8.35;5.45;;;;;;;22.44;62.25;100978.63;5013512;28;20022;-73
2021/07/14 05:17:38;;;;;;;7.72;5.63;;;;;;;22.41;62.18;100971.00;5012384;28;20022;-72
2021/07/14 05:20:06;;;;;;;7.93;5.20;;;;;;;22.43;62.60;100979.63;5013479;28;20022;-72
2021/07/14 05:22:31;;;;;;;6.90;5.47;;;;;;;22.43;62.36;100976.97;5012405;28;20028;-72
2021/07/14 05:24:56;;;;;;;8.80;5.37;;;;;;;22.42;62.57;100979.78;5013168;28;20033;-74
2021/07/14 05:27:27;;;;;;;6.57;5.00;;;;;;;22.43;62.35;100986.75;5012959;28;20303;-73
2021/07/14 05:29:52;;;;;;;7.28;5.53;;;;;;;22.43;62.51;100990.25;5012397;28;20186;-72
2021/07/14 05:32:20;;;;;;;7.25;5.22;;;;;;;22.43;62.09;100989.41;5012734;28;20032;-73
2021/07/14 05:34:48;;;;;;;7.63;5.53;;;;;;;22.43;62.24;100984.94;5013318;28;20101;-73
2021/07/14 05:37:13;;;;;;;6.90;5.15;;;;;;;22.43;62.02;101006.19;5012251;28;20022;-72
2021/07/14 05:39:38;;;;;;;7.00;5.32;;;;;;;22.43;62.03;100998.22;5012685;28;20143;-72
2021/07/14 05:42:04;;;;;;;7.75;5.50;;;;;;;22.42;62.42;101003.69;5013042;28;20022;-74
2021/07/14 05:44:30;;;;;;;7.55;5.18;;;;;;;22.42;62.28;101003.69;5011857;28;20045;-75
2021/07/14 05:46:56;;;;;;;8.40;5.63;;;;;;;22.44;62.09;101017.63;5013258;28;20037;-76
2021/07/14 05:49:21;;;;;;;7.10;4.90;;;;;;;22.43;61.97;101015.94;5013265;28;20017;-76
2021/07/14 05:51:50;;;;;;;8.00;5.60;;;;;;;22.43;62.24;101021.25;5012446;28;20113;-75
2021/07/14 05:54:15;;;;;;;8.27;5.68;;;;;;;22.43;62.35;101023.91;5011707;28;20034;-76
2021/07/14 05:56:41;;;;;;;7.22;5.25;;;;;;;22.42;62.34;101017.78;5012530;28;20033;-76
2021/07/14 05:59:06;;;;;;;7.78;5.70;;;;;;;22.41;62.24;101024.09;5011981;28;20026;-75
2021/07/14 06:01:31;;;;;;;7.28;5.05;;;;;;;22.42;62.23;101020.44;5012393;28;20022;-74
2021/07/14 06:03:57;;;;;;;7.72;5.70;;;;;;;22.40;62.49;101024.25;5012615;28;20044;-74
2021/07/14 06:06:22;;;;;;;7.40;5.28;;;;;;;22.41;62.13;101025.88;5011716;28;20042;-73
2021/07/14 06:08:48;;;;;;;8.23;5.85;;;;;;;22.41;62.37;101026.75;5012075;28;20030;-75
2021/07/14 06:11:13;;;;;;;9.25;5.80;;;;;;;22.41;62.46;101029.41;5012849;28;20026;-73
2021/07/14 06:13:38;;;;;;;8.38;5.13;;;;;;;22.41;62.46;101031.19;5011879;28;20037;-74
2021/07/14 06:16:04;;;;;;;8.73;5.90;;;;;;;22.42;62.50;101032.88;5012834;28;20029;-74
2021/07/14 06:18:29;;;;;;;7.45;5.72;;;;;;;22.41;62.13;101033.84;5012675;28;20022;-75
2021/07/14 06:20:55;;;;;;;7.40;5.82;;;;;;;22.41;62.52;101033.84;5012265;28;20022;-74
2021/07/14 06:23:20;;;;;;;8.15;5.55;;;;;;;22.39;62.33;101031.34;5012595;28;20030;-72
2021/07/14 06:25:46;;;;;;;7.33;5.20;;;;;;;22.40;62.42;101042.81;5012419;28;20029;-73
2021/07/14 06:28:14;;;;;;;8.25;5.00;;;;;;;22.38;62.33;101034.16;5012935;28;20310;-76
2021/07/14 06:30:41;;;;;;;8.38;6.18;;;;;;;22.39;62.49;101036.66;5013704;28;20022;-75
2021/07/14 06:33:06;;;;;;;7.88;5.50;;;;;;;22.40;62.44;101038.34;5015230;28;20026;-77
2021/07/14 06:35:34;;;;;;;8.23;5.23;;;;;;;22.39;62.42;101028.69;5013784;28;20504;-70
2021/07/14 06:38:00;;;;;;;7.38;5.35;;;;;;;22.41;62.71;101034.72;5012535;28;20272;-69
2021/07/14 06:40:26;;;;;;;7.43;5.75;;;;;;;22.42;63.20;101031.06;5014519;28;20022;-78
2021/07/14 06:42:51;;;;;;;9.75;5.50;;;;;;;22.41;62.52;101032.06;5014247;28;20026;-76
2021/07/14 06:45:17;;;;;;;7.13;4.88;;;;;;;22.40;62.69;101029.56;5012959;28;20097;-78
2021/07/14 06:47:43;;;;;;;7.97;5.72;;;;;;;22.43;63.14;101039.84;5011972;28;20055;-73
2021/07/14 06:50:11;;;;;;;7.32;5.18;;;;;;;22.44;63.03;101034.38;5012578;28;20034;-73
2021/07/14 06:52:37;;;;;;;7.93;5.18;;;;;;;22.44;62.65;101022.94;5012661;28;20022;-73
2021/07/14 06:55:04;;;;;;;8.48;5.18;;;;;;;22.44;62.99;101029.06;5012435;28;20026;-73
2021/07/14 06:57:30;;;;;;;7.47;5.07;;;;;;;22.44;63.11;101023.78;5012505;28;20515;-74
2021/07/14 06:59:55;;;;;;;7.93;5.63;;;;;;;22.46;63.25;101027.13;5013591;28;20046;-75
2021/07/14 07:02:20;;;;;;;8.47;5.97;;;;;;;22.46;63.22;101024.47;5012209;28;20528;-76
2021/07/14 07:04:49;;;;;;;7.90;5.00;;;;;;;22.51;62.87;101023.19;5013473;28;20385;-72
2021/07/14 07:07:14;;;;;;;9.57;5.65;;;;;;;22.51;62.91;101020.53;5013620;28;20105;-73
2021/07/14 07:09:40;;;;;;;7.00;5.45;;;;;;;22.50;63.16;101024.19;5012622;28;20489;-73
2021/07/14 07:12:08;;;;;;;9.65;5.72;;;;;;;22.51;63.07;101017.88;5015413;28;20041;-74
2021/07/14 07:14:33;;;;;;;7.85;5.32;;;;;;;22.52;62.99;101024.84;5015275;28;20022;-77
2021/07/14 07:16:59;;;;;;;7.30;5.33;;;;;;;22.52;62.83;101027.50;5013847;28;20140;-73
2021/07/14 07:19:24;;;;;;;7.17;5.40;;;;;;;22.53;63.05;101026.53;5014687;28;20359;-73
2021/07/14 07:21:50;;;;;;;7.30;4.93;;;;;;;22.52;62.93;101027.50;5020274;28;20752;-75
2021/07/14 07:24:16;;;;;;;7.68;5.45;;;;;;;22.52;62.83;101028.34;5021720;28;20026;-78
2021/07/14 07:26:44;;;;;;;7.00;5.13;;;;;;;22.53;63.19;101031.84;5024169;28;20562;-73
2021/07/14 07:29:10;;;;;;;7.45;4.80;;;;;;;22.51;63.15;101023.19;5016822;28;20029;-78
2021/07/14 07:31:35;;;;;;;7.43;4.97;;;;;;;22.54;63.28;101023.72;5018618;28;20370;-73
2021/07/14 07:34:00;;;;;;;7.28;5.20;;;;;;;22.54;63.12;101021.06;5016632;28;20041;-69
2021/07/14 07:36:38;;;;;;;7.50;5.35;;;;;;;22.57;63.46;101026.09;5017698;28;20022;-71
2021/07/14 07:39:07;;;;;;;7.18;5.13;;;;;;;22.59;62.93;101021.47;5022241;28;20034;-69
2021/07/14 07:41:33;;;;;;;8.00;4.88;;;;;;;22.60;63.14;101028.41;5023844;28;20026;-71
2021/07/14 07:44:04;;;;;;;6.55;4.47;;;;;;;22.62;62.85;101028.28;5017498;28;20033;-71
2021/07/14 07:46:29;;;;;;;6.85;4.55;;;;;;;22.63;63.01;101029.97;5022200;28;20082;-72
2021/07/14 07:48:55;;;;;;;7.03;4.72;;;;;;;22.61;63.13;101035.41;5025507;28;20436;-73
2021/07/14 07:51:20;;;;;;;5.88;4.45;;;;;;;22.60;63.06;101032.91;5024410;28;20478;-73
2021/07/14 07:53:48;;;;;;;7.63;4.60;;;;;;;22.59;63.07;101033.91;5026620;28;20026;-73
2021/07/14 07:56:14;;;;;;;6.93;5.32;;;;;;;22.57;63.20;101031.41;5022879;28;20278;-74
2021/07/14 07:58:43;;;;;;;7.70;5.20;;;;;;;22.60;63.46;101036.38;5022790;28;20506;-73
2021/07/14 08:01:08;;;;;;;7.53;4.97;;;;;;;22.63;63.30;101041.41;5021577;28;20030;-70
2021/07/14 08:03:34;;;;;;;7.57;4.53;;;;;;;22.59;63.18;101037.41;5017559;28;20057;-76
2021/07/14 08:05:59;;;;;;;8.15;4.65;;;;;;;22.63;63.01;101046.72;5016838;28;20478;-70
2021/07/14 08:08:24;;;;;;;6.30;4.75;;;;;;;22.64;62.89;101044.91;5016828;28;20443;-74
2021/07/14 08:10:53;;;;;;;7.35;4.43;;;;;;;22.62;63.23;101049.53;5018962;28;20018;-72
2021/07/14 08:13:27;;;;;;;7.57;4.55;;;;;;;22.63;63.01;101052.03;5024527;28;20119;-73
2021/07/14 08:16:05;;;;;;;7.18;4.70;;;;;;;22.63;63.26;101053.88;5027626;28;20030;-71
2021/07/14 08:18:30;;;;;;;8.10;4.75;;;;;;;22.66;62.99;101055.41;5027649;28;20026;-72
2021/07/14 08:20:56;;;;;;;6.90;4.88;;;;;;;22.64;63.04;101048.41;5028078;28;20040;-74
2021/07/14 08:23:22;;;;;;;9.48;5.63;;;;;;;22.63;62.62;101045.91;5026434;28;20024;-76
2021/07/14 08:25:51;;;;;;;7.85;4.65;;;;;;;22.64;62.97;101044.91;5028740;28;20026;-80
2021/07/14 08:28:16;;;;;;;9.85;4.90;;;;;;;22.64;62.81;101052.88;5004286;28;20034;-77
2021/07/14 08:30:42;;;;;;;7.07;4.95;;;;;;;22.63;62.69;101040.56;5014822;28;20029;-76
2021/07/14 08:33:10;;;;;;;6.95;4.05;;;;;;;22.63;62.58;101052.03;5013507;28;20069;-71
2021/07/14 08:35:36;;;;;;;8.20;4.93;;;;;;;22.66;62.89;101058.88;5013530;28;20044;-71
2021/07/14 08:38:02;;;;;;;8.15;4.50;;;;;;;22.67;62.95;101054.38;5015149;28;20030;-70
2021/07/14 08:40:27;;;;;;;9.18;4.50;;;;;;;22.67;62.52;101047.28;5013678;28;20061;-71
2021/07/14 08:42:58;;;;;;;6.10;4.45;;;;;;;22.69;62.64;101060.41;5015955;28;20108;-72
2021/07/14 08:45:26;;;;;;;7.95;4.57;;;;;;;22.67;63.00;101049.06;5014718;28;20528;-71
2021/07/14 08:47:51;;;;;;;6.70;4.75;;;;;;;22.69;62.80;101055.91;5013210;28;20105;-75
2021/07/14 08:50:20;;;;;;;6.38;4.70;;;;;;;22.68;62.71;101051.59;5013643;28;20097;-75
2021/07/14 08:52:48;;;;;;;8.50;4.55;;;;;;;22.66;62.95;101048.25;5014118;28;20022;-80
2021/07/14 08:55:14;;;;;;;8.27;4.68;;;;;;;22.63;63.06;101040.56;5013066;28;20397;-72
2021/07/14 08:57:40;;;;;;;9.68;5.30;;;;;;;22.64;62.90;101045.75;5014120;28;20026;-73
2021/07/14 09:00:09;;;;;;;8.20;5.13;;;;;;;22.67;62.61;101043.75;5014082;28;20489;-80
2021/07/14 09:02:38;;;;;;;7.82;5.00;;;;;;;22.67;62.51;101038.44;5012711;28;20092;-80
2021/07/14 09:05:05;;;;;;;7.35;4.80;;;;;;;22.66;62.53;101031.50;5013730;28;20026;-79
2021/07/14 09:07:30;;;;;;;10.65;5.57;;;;;;;22.68;62.95;101042.78;5012685;28;20087;-72
2021/07/14 09:09:56;;;;;;;6.85;4.80;;;;;;;22.69;62.66;101039.16;5013678;28;20021;-76
2021/07/14 09:12:34;;;;;;;7.88;5.40;;;;;;;22.69;62.56;101042.63;5013704;28;20028;-76
2021/07/14 09:15:04;;;;;;;7.80;5.47;;;;;;;22.67;62.66;101044.63;5012933;28;20032;-74
2021/07/14 09:17:30;;;;;;;8.40;5.53;;;;;;;22.67;62.82;101047.28;5013320;28;20026;-72
2021/07/14 09:20:10;;;;;;;9.40;5.17;;;;;;;22.64;62.64;101036.94;5013728;28;20100;-72
2021/07/14 09:22:35;;;;;;;7.40;5.05;;;;;;;22.66;62.81;101044.78;5012820;28;20268;-72
2021/07/14 09:25:09;;;;;;;7.40;5.30;;;;;;;22.66;62.63;101042.13;5013807;28;20441;-76
2021/07/14 09:27:36;;;;;;;7.70;5.10;;;;;;;22.66;62.80;101040.28;5013197;28;20037;-74
2021/07/14 09:30:17;;;;;;;8.00;5.60;;;;;;;22.68;62.63;101053.41;5012710;28;20026;-75
2021/07/14 09:33:00;;;;;;;8.73;5.65;;;;;;;22.68;62.93;101048.09;5013665;28;20029;-74
2021/07/14 09:35:42;;;;;;;9.18;5.40;;;;;;;22.65;62.87;101049.22;5012957;28;20018;-74
2021/07/14 09:38:21;;;;;;;12.27;5.85;;;;;;;22.61;62.57;101035.41;5013279;28;20054;-74
2021/07/14 09:40:52;;;;;;;9.30;5.55;;;;;;;22.59;62.94;101037.41;5013441;28;20054;-74
2021/07/14 09:43:26;;;;;;;8.82;5.50;;;;;;;22.58;63.00;101037.53;5011299;28;20032;-73
2021/07/14 09:46:05;;;;;;;7.75;5.72;;;;;;;22.56;62.53;101032.38;5012676;28;20434;-74
2021/07/14 09:48:36;;;;;;;9.32;5.45;;;;;;;22.55;62.70;101035.19;5012926;28;20032;-74
2021/07/14 09:51:09;;;;;;;7.85;5.95;;;;;;;22.52;62.94;101033.66;5012478;28;20026;-72
2021/07/14 09:53:37;;;;;;;10.63;6.07;;;;;;;22.52;63.14;101036.31;5012856;28;20096;-73
2021/07/14 09:56:13;;;;;;;8.40;5.85;;;;;;;22.52;62.86;101049.59;5013078;28;20041;-73
2021/07/14 09:58:40;;;;;;;8.50;6.30;;;;;;;22.51;62.70;101053.25;5011782;28;20126;-74
2021/07/14 10:01:06;;;;;;;8.30;5.78;;;;;;;22.51;62.99;101057.69;5012890;28;20032;-74
2021/07/14 10:03:39;;;;;;;10.27;6.15;;;;;;;22.50;62.72;101059.53;5012447;28;20354;-73
2021/07/14 10:06:08;;;;;;;8.43;5.60;;;;;;;22.51;62.86;101063.00;5012689;28;20036;-74
2021/07/14 10:08:35;;;;;;;9.18;6.45;;;;;;;22.50;62.74;101056.03;5012438;28;20030;-73
2021/07/14 10:11:21;;;;;;;9.27;6.20;;;;;;;22.43;62.81;101053.97;5012007;28;20381;-73
2021/07/14 10:13:53;;;;;;;9.02;6.95;;;;;;;22.48;62.81;101056.19;5012884;28;20057;-74
2021/07/14 10:16:20;;;;;;;8.30;6.40;;;;;;;22.47;63.05;101057.16;5012587;28;20113;-76
2021/07/14 10:19:02;;;;;;;9.48;6.70;;;;;;;22.48;62.73;101058.84;5011860;28;20022;-73
2021/07/14 10:21:36;;;;;;;9.25;6.65;;;;;;;22.48;62.74;101060.66;5015560;28;20030;-72
2021/07/14 10:24:02;;;;;;;8.30;6.30;;;;;;;22.50;62.66;101053.41;5014947;28;20080;-71
2021/07/14 10:26:27;;;;;;;9.20;6.38;;;;;;;22.51;62.72;101052.38;5011733;28;20074;-77
2021/07/14 10:28:59;;;;;;;9.98;5.72;;;;;;;22.55;62.96;101051.94;5012807;28;20036;-73
2021/07/14 10:31:25;;;;;;;8.20;6.40;;;;;;;22.59;62.71;101055.16;5013404;28;20021;-77
2021/07/14 10:33:53;;;;;;;10.52;6.60;;;;;;;22.61;62.72;101058.50;5012348;28;20482;-74
2021/07/14 10:36:26;;;;;;;10.02;5.88;;;;;;;22.60;62.78;101057.63;5012274;28;20074;-72
2021/07/14 10:38:55;;;;;;;8.45;6.82;;;;;;;22.67;62.72;101057.03;5012787;28;20091;-77
2021/07/14 10:41:22;;;;;;;10.18;6.82;;;;;;;22.67;62.87;101062.34;5013651;28;20474;-75
2021/07/14 10:43:50;;;;;;;8.52;6.97;;;;;;;22.68;62.44;101054.25;5013024;28;20034;-72
2021/07/14 10:46:16;;;;;;;8.35;6.38;;;;;;;22.69;62.46;101060.41;5013337;28;20462;-74
2021/07/14 10:48:42;;;;;;;11.20;6.60;;;;;;;22.71;62.75;101053.13;5013538;28;20022;-76
2021/07/14 10:51:09;;;;;;;10.07;6.55;;;;;;;22.71;62.74;101051.28;5013586;28;20113;-75
2021/07/14 10:53:36;;;;;;;8.98;6.68;;;;;;;22.73;62.60;101053.78;5012521;28;20022;-76
2021/07/14 10:56:04;;;;;;;8.40;6.05;;;;;;;22.73;62.86;101057.31;5017646;28;20030;-75
2021/07/14 10:58:30;;;;;;;10.00;6.47;;;;;;;22.74;62.67;101050.16;5015679;28;20366;-73
2021/07/14 11:00:58;;;;;;;10.00;5.50;;;;;;;22.73;62.55;101054.66;5015485;28;20454;-73
2021/07/14 11:03:33;;;;;;;8.68;6.32;;;;;;;22.74;62.54;101050.16;5015771;28;20065;-72
2021/07/14 11:05:59;;;;;;;9.13;6.25;;;;;;;22.72;62.87;101042.34;5016142;28;20513;-74
2021/07/14 11:08:48;;;;;;;9.05;6.10;;;;;;;22.74;63.01;101043.03;5015716;28;20377;-72
2021/07/14 11:11:21;;;;;;;7.57;5.65;;;;;;;22.73;62.79;101036.06;5017148;28;20433;-72
2021/07/14 11:13:50;;;;;;;8.40;6.05;;;;;;;22.72;62.60;101045.00;5015963;28;20089;-75
2021/07/14 11:16:35;;;;;;;7.35;6.30;;;;;;;22.72;62.69;101044.19;5014946;28;20022;-82
2021/07/14 11:19:08;;;;;;;10.73;6.20;;;;;;;22.70;62.49;101046.97;5016800;28;20073;-72
2021/07/14 11:21:42;;;;;;;9.27;6.43;;;;;;;22.72;62.83;101044.19;5017040;28;20029;-73
2021/07/14 11:24:08;;;;;;;9.15;5.82;;;;;;;22.71;62.59;101039.84;5016000;28;20028;-75
2021/07/14 11:26:33;;;;;;;8.50;6.15;;;;;;;22.70;62.73;101043.47;5015646;28;20030;-73
2021/07/14 11:29:13;;;;;;;8.35;6.05;;;;;;;22.67;62.73;101035.78;5015075;28;20034;-74
2021/07/14 11:31:42;;;;;;;8.98;6.85;;;;;;;22.69;62.54;101053.25;5015531;28;20033;-77
2021/07/14 11:34:30;;;;;;;9.55;6.15;;;;;;;22.70;62.58;101044.31;5015369;28;20363;-74
2021/07/14 11:36:55;;;;;;;9.57;6.13;;;;;;;22.67;62.53;101038.44;5014900;28;20026;-75
2021/07/14 11:39:31;;;;;;;7.95;6.20;;;;;;;22.66;62.47;101042.94;5015177;28;20385;-74